sensor_id;sensor_type;location;lat;lon;timestamp;P1;durP1;ratioP1;P2;durP2;ratioP2
79790;SDS011;69278;52.220;5.172;2023-07-20T00:02:18;2.88;;;1.75;;
79790;SDS011;69278;52.220;5.172;2023-07-20T00:04:45;2.40;;;1.30;;
79790;SDS011;69278;52.220;5.172;2023-07-20T00:07:11;2.03;;;1.40;;
79790;SDS011;69278;52.220;5.172;2023-07-20T00:09:38;2.15;;;1.38;;
79790;SDS011;69278;52.220;5.172;2023-07-20T00:12:04;2.43;;;1.60;;
79790;SDS011;69278;52.220;5.172;2023-07-20T00:14:31;2.80;;;1.50;;
79790;SDS011;69278;52.220;5.172;2023-07-20T00:16:58;2.05;;;1.27;;
79790;SDS011;69278;52.220;5.172;2023-07-20T00:19:25;2.20;;;1.48;;
79790;SDS011;69278;52.220;5.172;2023-07-20T00:21:53;2.22;;;1.30;;
79790;SDS011;69278;52.220;5.172;2023-07-20T00:24:21;2.87;;;1.50;;
79790;SDS011;69278;52.220;5.172;2023-07-20T00:26:48;2.67;;;1.60;;
79790;SDS011;69278;52.220;5.172;2023-07-20T00:29:14;2.95;;;1.67;;
79790;SDS011;69278;52.220;5.172;2023-07-20T00:31:41;2.25;;;1.58;;
79790;SDS011;69278;52.220;5.172;2023-07-20T00:34:09;2.08;;;1.50;;
79790;SDS011;69278;52.220;5.172;2023-07-20T00:36:36;2.10;;;1.50;;
79790;SDS011;69278;52.220;5.172;2023-07-20T00:39:02;4.25;;;1.88;;
79790;SDS011;69278;52.220;5.172;2023-07-20T00:41:29;3.20;;;1.70;;
79790;SDS011;69278;52.220;5.172;2023-07-20T00:43:55;2.65;;;1.60;;
79790;SDS011;69278;52.220;5.172;2023-07-20T00:46:22;2.72;;;1.70;;
79790;SDS011;69278;52.220;5.172;2023-07-20T00:48:51;2.40;;;1.70;;
79790;SDS011;69278;52.220;5.172;2023-07-20T00:51:20;3.80;;;1.80;;
79790;SDS011;69278;52.220;5.172;2023-07-20T00:53:47;2.67;;;1.77;;
79790;SDS011;69278;52.220;5.172;2023-07-20T00:56:17;2.65;;;1.92;;
79790;SDS011;69278;52.220;5.172;2023-07-20T00:58:43;2.95;;;1.70;;
79790;SDS011;69278;52.220;5.172;2023-07-20T01:01:11;2.47;;;1.87;;
79790;SDS011;69278;52.220;5.172;2023-07-20T01:03:38;2.95;;;1.80;;
79790;SDS011;69278;52.220;5.172;2023-07-20T01:14:07;3.70;;;2.00;;
79790;SDS011;69278;52.220;5.172;2023-07-20T01:16:35;2.88;;;1.80;;
79790;SDS011;69278;52.220;5.172;2023-07-20T01:19:01;2.90;;;1.80;;
79790;SDS011;69278;52.220;5.172;2023-07-20T01:21:31;2.83;;;1.88;;
79790;SDS011;69278;52.220;5.172;2023-07-20T01:24:13;3.42;;;2.03;;
79790;SDS011;69278;52.220;5.172;2023-07-20T01:30:14;3.03;;;2.10;;
79790;SDS011;69278;52.220;5.172;2023-07-20T01:32:51;3.35;;;2.10;;
79790;SDS011;69278;52.220;5.172;2023-07-20T01:35:20;3.28;;;2.00;;
79790;SDS011;69278;52.220;5.172;2023-07-20T01:37:49;4.35;;;2.00;;
79790;SDS011;69278;52.220;5.172;2023-07-20T01:40:16;3.10;;;2.00;;
79790;SDS011;69278;52.220;5.172;2023-07-20T01:42:45;3.58;;;2.20;;
79790;SDS011;69278;52.220;5.172;2023-07-20T01:45:12;3.53;;;1.75;;
79790;SDS011;69278;52.220;5.172;2023-07-20T01:47:39;3.10;;;2.08;;
79790;SDS011;69278;52.220;5.172;2023-07-20T01:50:06;2.90;;;2.10;;
79790;SDS011;69278;52.220;5.172;2023-07-20T01:52:33;4.53;;;2.10;;
79790;SDS011;69278;52.220;5.172;2023-07-20T01:54:59;3.38;;;2.05;;
79790;SDS011;69278;52.220;5.172;2023-07-20T01:57:26;3.28;;;2.10;;
79790;SDS011;69278;52.220;5.172;2023-07-20T01:59:52;3.80;;;2.30;;
79790;SDS011;69278;52.220;5.172;2023-07-20T02:02:19;4.18;;;2.40;;
79790;SDS011;69278;52.220;5.172;2023-07-20T02:04:46;3.63;;;2.30;;
79790;SDS011;69278;52.220;5.172;2023-07-20T02:07:13;3.97;;;2.10;;
79790;SDS011;69278;52.220;5.172;2023-07-20T02:09:39;5.45;;;2.40;;
79790;SDS011;69278;52.220;5.172;2023-07-20T02:12:06;2.75;;;2.00;;
79790;SDS011;69278;52.220;5.172;2023-07-20T02:14:33;5.40;;;2.30;;
79790;SDS011;69278;52.220;5.172;2023-07-20T02:16:59;3.93;;;2.53;;
79790;SDS011;69278;52.220;5.172;2023-07-20T02:19:28;5.05;;;2.65;;
79790;SDS011;69278;52.220;5.172;2023-07-20T02:21:56;4.10;;;2.50;;
79790;SDS011;69278;52.220;5.172;2023-07-20T02:24:23;3.92;;;2.42;;
79790;SDS011;69278;52.220;5.172;2023-07-20T02:26:49;4.57;;;2.55;;
79790;SDS011;69278;52.220;5.172;2023-07-20T02:29:15;4.37;;;2.63;;
79790;SDS011;69278;52.220;5.172;2023-07-20T02:31:42;3.90;;;2.60;;
79790;SDS011;69278;52.220;5.172;2023-07-20T02:34:09;4.68;;;2.92;;
79790;SDS011;69278;52.220;5.172;2023-07-20T02:36:36;4.68;;;2.80;;
79790;SDS011;69278;52.220;5.172;2023-07-20T02:39:02;3.58;;;2.60;;
79790;SDS011;69278;52.220;5.172;2023-07-20T02:41:33;3.60;;;2.50;;
79790;SDS011;69278;52.220;5.172;2023-07-20T02:44:00;6.35;;;2.90;;
79790;SDS011;69278;52.220;5.172;2023-07-20T02:46:28;4.13;;;2.50;;
79790;SDS011;69278;52.220;5.172;2023-07-20T02:48:56;5.00;;;2.65;;
79790;SDS011;69278;52.220;5.172;2023-07-20T02:51:23;6.18;;;2.80;;
79790;SDS011;69278;52.220;5.172;2023-07-20T02:53:49;4.50;;;2.87;;
79790;SDS011;69278;52.220;5.172;2023-07-20T02:56:16;5.72;;;2.90;;
79790;SDS011;69278;52.220;5.172;2023-07-20T02:58:44;3.80;;;2.72;;
79790;SDS011;69278;52.220;5.172;2023-07-20T03:01:12;5.15;;;2.85;;
79790;SDS011;69278;52.220;5.172;2023-07-20T03:03:38;4.63;;;2.80;;
79790;SDS011;69278;52.220;5.172;2023-07-20T03:06:05;7.30;;;2.60;;
79790;SDS011;69278;52.220;5.172;2023-07-20T03:08:32;5.10;;;2.50;;
79790;SDS011;69278;52.220;5.172;2023-07-20T03:10:58;5.20;;;2.80;;
79790;SDS011;69278;52.220;5.172;2023-07-20T03:13:25;5.18;;;2.97;;
79790;SDS011;69278;52.220;5.172;2023-07-20T03:15:52;4.97;;;2.95;;
79790;SDS011;69278;52.220;5.172;2023-07-20T03:18:19;4.97;;;2.93;;
79790;SDS011;69278;52.220;5.172;2023-07-20T03:20:45;4.97;;;2.80;;
79790;SDS011;69278;52.220;5.172;2023-07-20T03:23:12;5.18;;;2.70;;
79790;SDS011;69278;52.220;5.172;2023-07-20T03:25:39;4.82;;;2.60;;
79790;SDS011;69278;52.220;5.172;2023-07-20T03:28:05;6.50;;;2.80;;
79790;SDS011;69278;52.220;5.172;2023-07-20T03:30:32;4.37;;;3.00;;
79790;SDS011;69278;52.220;5.172;2023-07-20T03:32:58;4.78;;;2.90;;
79790;SDS011;69278;52.220;5.172;2023-07-20T03:35:25;5.28;;;3.03;;
79790;SDS011;69278;52.220;5.172;2023-07-20T03:37:51;5.22;;;2.97;;
79790;SDS011;69278;52.220;5.172;2023-07-20T03:40:18;5.68;;;3.05;;
79790;SDS011;69278;52.220;5.172;2023-07-20T03:42:44;5.63;;;2.93;;
79790;SDS011;69278;52.220;5.172;2023-07-20T03:45:11;4.60;;;3.13;;
79790;SDS011;69278;52.220;5.172;2023-07-20T03:47:37;5.53;;;3.20;;
79790;SDS011;69278;52.220;5.172;2023-07-20T03:50:04;6.05;;;3.10;;
79790;SDS011;69278;52.220;5.172;2023-07-20T03:52:31;5.72;;;2.83;;
79790;SDS011;69278;52.220;5.172;2023-07-20T03:54:58;4.63;;;2.53;;
79790;SDS011;69278;52.220;5.172;2023-07-20T03:57:24;4.25;;;2.40;;
79790;SDS011;69278;52.220;5.172;2023-07-20T03:59:51;3.97;;;2.60;;
79790;SDS011;69278;52.220;5.172;2023-07-20T04:02:17;6.38;;;2.30;;
79790;SDS011;69278;52.220;5.172;2023-07-20T04:04:44;6.95;;;2.80;;
79790;SDS011;69278;52.220;5.172;2023-07-20T04:07:10;4.70;;;2.03;;
79790;SDS011;69278;52.220;5.172;2023-07-20T04:09:37;4.47;;;2.50;;
79790;SDS011;69278;52.220;5.172;2023-07-20T04:12:03;4.75;;;1.95;;
79790;SDS011;69278;52.220;5.172;2023-07-20T04:14:30;3.03;;;2.10;;
79790;SDS011;69278;52.220;5.172;2023-07-20T04:16:56;3.95;;;2.22;;
79790;SDS011;69278;52.220;5.172;2023-07-20T04:19:23;3.20;;;2.17;;
79790;SDS011;69278;52.220;5.172;2023-07-20T04:21:49;4.45;;;2.38;;
79790;SDS011;69278;52.220;5.172;2023-07-20T04:24:16;4.28;;;2.50;;
79790;SDS011;69278;52.220;5.172;2023-07-20T04:26:42;2.97;;;2.00;;
79790;SDS011;69278;52.220;5.172;2023-07-20T04:29:09;3.72;;;2.22;;
79790;SDS011;69278;52.220;5.172;2023-07-20T04:31:36;3.40;;;2.30;;
79790;SDS011;69278;52.220;5.172;2023-07-20T04:34:02;3.80;;;2.13;;
79790;SDS011;69278;52.220;5.172;2023-07-20T04:36:28;5.35;;;2.80;;
79790;SDS011;69278;52.220;5.172;2023-07-20T04:38:55;4.32;;;2.40;;
79790;SDS011;69278;52.220;5.172;2023-07-20T04:41:21;4.65;;;2.78;;
79790;SDS011;69278;52.220;5.172;2023-07-20T04:43:48;4.00;;;2.80;;
79790;SDS011;69278;52.220;5.172;2023-07-20T04:46:14;4.00;;;2.60;;
79790;SDS011;69278;52.220;5.172;2023-07-20T04:48:43;4.05;;;2.50;;
79790;SDS011;69278;52.220;5.172;2023-07-20T04:51:10;5.70;;;2.55;;
79790;SDS011;69278;52.220;5.172;2023-07-20T04:53:36;4.00;;;2.42;;
79790;SDS011;69278;52.220;5.172;2023-07-20T04:56:03;3.90;;;2.30;;
79790;SDS011;69278;52.220;5.172;2023-07-20T04:58:29;4.53;;;2.53;;
79790;SDS011;69278;52.220;5.172;2023-07-20T05:00:56;3.38;;;2.17;;
79790;SDS011;69278;52.220;5.172;2023-07-20T05:03:22;4.75;;;2.58;;
79790;SDS011;69278;52.220;5.172;2023-07-20T05:05:49;3.22;;;2.00;;
79790;SDS011;69278;52.220;5.172;2023-07-20T05:08:16;2.80;;;1.80;;
79790;SDS011;69278;52.220;5.172;2023-07-20T05:10:43;3.78;;;1.83;;
79790;SDS011;69278;52.220;5.172;2023-07-20T05:13:09;3.47;;;2.00;;
79790;SDS011;69278;52.220;5.172;2023-07-20T05:15:36;2.80;;;1.88;;
79790;SDS011;69278;52.220;5.172;2023-07-20T05:18:02;2.40;;;1.55;;
79790;SDS011;69278;52.220;5.172;2023-07-20T05:20:29;3.90;;;1.57;;
79790;SDS011;69278;52.220;5.172;2023-07-20T05:22:55;2.53;;;1.60;;
79790;SDS011;69278;52.220;5.172;2023-07-20T05:25:22;2.35;;;1.55;;
79790;SDS011;69278;52.220;5.172;2023-07-20T05:27:49;3.67;;;1.75;;
79790;SDS011;69278;52.220;5.172;2023-07-20T05:30:16;3.28;;;1.50;;
79790;SDS011;69278;52.220;5.172;2023-07-20T05:32:43;2.53;;;1.60;;
79790;SDS011;69278;52.220;5.172;2023-07-20T05:35:11;2.50;;;1.38;;
79790;SDS011;69278;52.220;5.172;2023-07-20T05:37:38;3.65;;;1.50;;
79790;SDS011;69278;52.220;5.172;2023-07-20T05:40:05;2.95;;;1.33;;
79790;SDS011;69278;52.220;5.172;2023-07-20T05:42:34;3.80;;;1.40;;
79790;SDS011;69278;52.220;5.172;2023-07-20T05:45:00;3.70;;;1.50;;
79790;SDS011;69278;52.220;5.172;2023-07-20T05:47:27;2.30;;;1.50;;
79790;SDS011;69278;52.220;5.172;2023-07-20T05:49:53;4.28;;;1.42;;
79790;SDS011;69278;52.220;5.172;2023-07-20T05:52:20;1.70;;;1.10;;
79790;SDS011;69278;52.220;5.172;2023-07-20T05:54:46;5.60;;;1.50;;
79790;SDS011;69278;52.220;5.172;2023-07-20T05:57:13;2.17;;;1.20;;
79790;SDS011;69278;52.220;5.172;2023-07-20T05:59:39;2.22;;;1.50;;
79790;SDS011;69278;52.220;5.172;2023-07-20T06:02:10;3.03;;;1.23;;
79790;SDS011;69278;52.220;5.172;2023-07-20T06:04:38;4.55;;;1.25;;
79790;SDS011;69278;52.220;5.172;2023-07-20T06:07:05;1.98;;;1.30;;
79790;SDS011;69278;52.220;5.172;2023-07-20T06:09:34;2.63;;;1.20;;
79790;SDS011;69278;52.220;5.172;2023-07-20T06:12:00;2.42;;;1.20;;
79790;SDS011;69278;52.220;5.172;2023-07-20T06:14:27;2.65;;;1.40;;
79790;SDS011;69278;52.220;5.172;2023-07-20T06:16:54;2.33;;;1.05;;
79790;SDS011;69278;52.220;5.172;2023-07-20T06:19:20;2.33;;;1.10;;
79790;SDS011;69278;52.220;5.172;2023-07-20T06:21:48;2.10;;;1.20;;
79790;SDS011;69278;52.220;5.172;2023-07-20T06:24:16;2.55;;;1.17;;
79790;SDS011;69278;52.220;5.172;2023-07-20T06:26:43;3.53;;;1.40;;
79790;SDS011;69278;52.220;5.172;2023-07-20T06:29:09;2.10;;;1.20;;
79790;SDS011;69278;52.220;5.172;2023-07-20T06:31:36;1.98;;;1.15;;
79790;SDS011;69278;52.220;5.172;2023-07-20T06:34:03;1.67;;;1.10;;
79790;SDS011;69278;52.220;5.172;2023-07-20T06:36:30;2.38;;;1.17;;
79790;SDS011;69278;52.220;5.172;2023-07-20T06:38:56;1.90;;;1.10;;
79790;SDS011;69278;52.220;5.172;2023-07-20T06:41:25;1.77;;;1.30;;
79790;SDS011;69278;52.220;5.172;2023-07-20T06:43:55;2.22;;;1.30;;
79790;SDS011;69278;52.220;5.172;2023-07-20T06:46:25;2.37;;;1.10;;
79790;SDS011;69278;52.220;5.172;2023-07-20T06:48:53;2.47;;;1.08;;
79790;SDS011;69278;52.220;5.172;2023-07-20T06:51:22;2.50;;;1.13;;
79790;SDS011;69278;52.220;5.172;2023-07-20T06:53:49;1.83;;;1.10;;
79790;SDS011;69278;52.220;5.172;2023-07-20T06:56:16;2.00;;;1.30;;
79790;SDS011;69278;52.220;5.172;2023-07-20T06:58:42;3.67;;;1.20;;
79790;SDS011;69278;52.220;5.172;2023-07-20T07:01:09;1.90;;;1.17;;
79790;SDS011;69278;52.220;5.172;2023-07-20T07:03:35;2.08;;;1.20;;
79790;SDS011;69278;52.220;5.172;2023-07-20T07:06:03;2.15;;;1.08;;
79790;SDS011;69278;52.220;5.172;2023-07-20T07:08:30;1.95;;;1.10;;
79790;SDS011;69278;52.220;5.172;2023-07-20T07:10:56;2.20;;;1.00;;
79790;SDS011;69278;52.220;5.172;2023-07-20T07:13:23;2.83;;;1.10;;
79790;SDS011;69278;52.220;5.172;2023-07-20T07:15:50;2.38;;;1.02;;
79790;SDS011;69278;52.220;5.172;2023-07-20T07:18:17;1.95;;;1.02;;
79790;SDS011;69278;52.220;5.172;2023-07-20T07:20:50;1.67;;;0.90;;
79790;SDS011;69278;52.220;5.172;2023-07-20T07:23:19;1.73;;;1.00;;
79790;SDS011;69278;52.220;5.172;2023-07-20T07:25:46;2.22;;;1.02;;
79790;SDS011;69278;52.220;5.172;2023-07-20T07:28:13;2.17;;;1.20;;
79790;SDS011;69278;52.220;5.172;2023-07-20T07:30:43;6.55;;;1.70;;
79790;SDS011;69278;52.220;5.172;2023-07-20T07:33:09;1.70;;;0.90;;
79790;SDS011;69278;52.220;5.172;2023-07-20T07:35:36;1.97;;;1.10;;
79790;SDS011;69278;52.220;5.172;2023-07-20T07:38:03;2.55;;;0.90;;
79790;SDS011;69278;52.220;5.172;2023-07-20T07:40:49;1.83;;;1.00;;
79790;SDS011;69278;52.220;5.172;2023-07-20T07:43:16;1.80;;;0.80;;
79790;SDS011;69278;52.220;5.172;2023-07-20T07:45:42;1.60;;;1.02;;
79790;SDS011;69278;52.220;5.172;2023-07-20T07:48:09;1.53;;;0.93;;
79790;SDS011;69278;52.220;5.172;2023-07-20T07:50:38;1.80;;;1.10;;
79790;SDS011;69278;52.220;5.172;2023-07-20T07:53:07;1.48;;;0.90;;
79790;SDS011;69278;52.220;5.172;2023-07-20T07:55:35;2.08;;;1.02;;
79790;SDS011;69278;52.220;5.172;2023-07-20T07:58:01;2.28;;;0.90;;
79790;SDS011;69278;52.220;5.172;2023-07-20T08:00:28;1.57;;;1.00;;
79790;SDS011;69278;52.220;5.172;2023-07-20T08:02:54;2.03;;;1.20;;
79790;SDS011;69278;52.220;5.172;2023-07-20T08:05:21;2.33;;;1.10;;
79790;SDS011;69278;52.220;5.172;2023-07-20T08:07:48;1.98;;;0.90;;
79790;SDS011;69278;52.220;5.172;2023-07-20T08:10:14;1.27;;;0.90;;
79790;SDS011;69278;52.220;5.172;2023-07-20T08:12:41;2.17;;;1.10;;
79790;SDS011;69278;52.220;5.172;2023-07-20T08:15:07;1.75;;;0.88;;
79790;SDS011;69278;52.220;5.172;2023-07-20T08:17:37;1.10;;;0.80;;
79790;SDS011;69278;52.220;5.172;2023-07-20T08:20:04;1.00;;;0.70;;
79790;SDS011;69278;52.220;5.172;2023-07-20T08:22:32;1.63;;;0.90;;
79790;SDS011;69278;52.220;5.172;2023-07-20T08:24:59;1.20;;;0.83;;
79790;SDS011;69278;52.220;5.172;2023-07-20T08:27:26;1.60;;;1.00;;
79790;SDS011;69278;52.220;5.172;2023-07-20T08:29:52;1.95;;;1.00;;
79790;SDS011;69278;52.220;5.172;2023-07-20T08:32:19;1.40;;;0.90;;
79790;SDS011;69278;52.220;5.172;2023-07-20T08:34:45;2.10;;;1.20;;
79790;SDS011;69278;52.220;5.172;2023-07-20T08:37:12;2.90;;;1.20;;
79790;SDS011;69278;52.220;5.172;2023-07-20T08:39:38;1.42;;;1.00;;
79790;SDS011;69278;52.220;5.172;2023-07-20T08:42:05;2.00;;;0.90;;
79790;SDS011;69278;52.220;5.172;2023-07-20T08:44:32;1.17;;;0.88;;
79790;SDS011;69278;52.220;5.172;2023-07-20T08:47:01;1.23;;;0.80;;
79790;SDS011;69278;52.220;5.172;2023-07-20T08:49:32;7.47;;;1.00;;
79790;SDS011;69278;52.220;5.172;2023-07-20T08:52:00;2.10;;;1.10;;
79790;SDS011;69278;52.220;5.172;2023-07-20T08:54:27;2.00;;;1.00;;
79790;SDS011;69278;52.220;5.172;2023-07-20T08:57:02;2.05;;;1.00;;
79790;SDS011;69278;52.220;5.172;2023-07-20T08:59:30;1.45;;;0.93;;
79790;SDS011;69278;52.220;5.172;2023-07-20T09:01:58;1.30;;;0.90;;
79790;SDS011;69278;52.220;5.172;2023-07-20T09:04:26;1.20;;;0.82;;
79790;SDS011;69278;52.220;5.172;2023-07-20T09:06:53;1.58;;;1.00;;
79790;SDS011;69278;52.220;5.172;2023-07-20T09:09:19;1.60;;;1.00;;
79790;SDS011;69278;52.220;5.172;2023-07-20T09:11:47;1.92;;;0.98;;
79790;SDS011;69278;52.220;5.172;2023-07-20T09:14:16;2.30;;;1.00;;
79790;SDS011;69278;52.220;5.172;2023-07-20T09:16:47;1.55;;;0.90;;
79790;SDS011;69278;52.220;5.172;2023-07-20T09:19:18;1.15;;;0.80;;
79790;SDS011;69278;52.220;5.172;2023-07-20T09:21:48;1.73;;;1.02;;
79790;SDS011;69278;52.220;5.172;2023-07-20T09:24:19;1.63;;;0.80;;
79790;SDS011;69278;52.220;5.172;2023-07-20T09:26:47;1.90;;;0.90;;
79790;SDS011;69278;52.220;5.172;2023-07-20T09:29:16;1.98;;;0.85;;
79790;SDS011;69278;52.220;5.172;2023-07-20T09:31:58;1.95;;;0.90;;
79790;SDS011;69278;52.220;5.172;2023-07-20T09:34:28;1.42;;;0.80;;
79790;SDS011;69278;52.220;5.172;2023-07-20T09:36:58;1.90;;;0.90;;
79790;SDS011;69278;52.220;5.172;2023-07-20T09:39:26;1.77;;;0.90;;
79790;SDS011;69278;52.220;5.172;2023-07-20T09:41:56;1.33;;;1.00;;
79790;SDS011;69278;52.220;5.172;2023-07-20T09:44:29;1.90;;;0.90;;
79790;SDS011;69278;52.220;5.172;2023-07-20T09:46:58;1.33;;;0.88;;
79790;SDS011;69278;52.220;5.172;2023-07-20T09:49:25;1.08;;;0.73;;
79790;SDS011;69278;52.220;5.172;2023-07-20T09:51:57;3.73;;;0.90;;
79790;SDS011;69278;52.220;5.172;2023-07-20T09:54:25;1.05;;;0.80;;
79790;SDS011;69278;52.220;5.172;2023-07-20T09:56:53;3.65;;;1.00;;
79790;SDS011;69278;52.220;5.172;2023-07-20T09:59:22;1.25;;;0.80;;
79790;SDS011;69278;52.220;5.172;2023-07-20T10:01:48;1.88;;;0.90;;
79790;SDS011;69278;52.220;5.172;2023-07-20T10:04:15;1.33;;;0.90;;
79790;SDS011;69278;52.220;5.172;2023-07-20T10:06:45;1.50;;;0.90;;
79790;SDS011;69278;52.220;5.172;2023-07-20T10:09:13;1.30;;;0.80;;
79790;SDS011;69278;52.220;5.172;2023-07-20T10:11:45;1.92;;;1.00;;
79790;SDS011;69278;52.220;5.172;2023-07-20T10:14:38;2.00;;;1.17;;
79790;SDS011;69278;52.220;5.172;2023-07-20T10:17:08;3.40;;;1.10;;
79790;SDS011;69278;52.220;5.172;2023-07-20T10:19:42;3.05;;;1.10;;
79790;SDS011;69278;52.220;5.172;2023-07-20T10:22:24;3.35;;;1.00;;
79790;SDS011;69278;52.220;5.172;2023-07-20T10:24:52;1.88;;;1.00;;
79790;SDS011;69278;52.220;5.172;2023-07-20T10:27:20;4.60;;;1.00;;
79790;SDS011;69278;52.220;5.172;2023-07-20T10:29:47;1.90;;;0.90;;
79790;SDS011;69278;52.220;5.172;2023-07-20T10:32:14;1.90;;;1.10;;
79790;SDS011;69278;52.220;5.172;2023-07-20T10:34:41;1.92;;;1.10;;
79790;SDS011;69278;52.220;5.172;2023-07-20T10:37:07;3.20;;;1.20;;
79790;SDS011;69278;52.220;5.172;2023-07-20T10:39:35;2.08;;;1.08;;
79790;SDS011;69278;52.220;5.172;2023-07-20T10:42:07;1.10;;;0.77;;
79790;SDS011;69278;52.220;5.172;2023-07-20T10:44:36;1.17;;;0.82;;
79790;SDS011;69278;52.220;5.172;2023-07-20T10:47:13;1.85;;;0.82;;
79790;SDS011;69278;52.220;5.172;2023-07-20T10:49:58;1.77;;;1.10;;
79790;SDS011;69278;52.220;5.172;2023-07-20T10:52:41;1.75;;;1.15;;
79790;SDS011;69278;52.220;5.172;2023-07-20T10:55:14;2.37;;;1.30;;
79790;SDS011;69278;52.220;5.172;2023-07-20T10:57:42;1.50;;;1.10;;
79790;SDS011;69278;52.220;5.172;2023-07-20T11:00:12;2.13;;;1.33;;
79790;SDS011;69278;52.220;5.172;2023-07-20T11:02:47;2.13;;;1.45;;
79790;SDS011;69278;52.220;5.172;2023-07-20T11:05:38;2.60;;;1.42;;
79790;SDS011;69278;52.220;5.172;2023-07-20T11:08:12;5.47;;;1.43;;
79790;SDS011;69278;52.220;5.172;2023-07-20T11:10:39;2.17;;;1.50;;
79790;SDS011;69278;52.220;5.172;2023-07-20T11:13:16;1.88;;;1.10;;
79790;SDS011;69278;52.220;5.172;2023-07-20T11:16:08;1.80;;;1.50;;
79790;SDS011;69278;52.220;5.172;2023-07-20T11:18:34;6.00;;;1.50;;
79790;SDS011;69278;52.220;5.172;2023-07-20T11:21:07;2.53;;;1.43;;
79790;SDS011;69278;52.220;5.172;2023-07-20T11:23:35;2.40;;;1.45;;
79790;SDS011;69278;52.220;5.172;2023-07-20T11:26:04;2.97;;;1.50;;
79790;SDS011;69278;52.220;5.172;2023-07-20T11:28:31;2.55;;;1.50;;
79790;SDS011;69278;52.220;5.172;2023-07-20T11:30:57;2.28;;;1.40;;
79790;SDS011;69278;52.220;5.172;2023-07-20T11:33:24;3.97;;;1.60;;
79790;SDS011;69278;52.220;5.172;2023-07-20T11:35:50;2.08;;;1.50;;
79790;SDS011;69278;52.220;5.172;2023-07-20T11:38:17;2.38;;;1.40;;
79790;SDS011;69278;52.220;5.172;2023-07-20T11:40:44;2.35;;;1.50;;
79790;SDS011;69278;52.220;5.172;2023-07-20T11:43:14;1.95;;;1.33;;
79790;SDS011;69278;52.220;5.172;2023-07-20T11:45:44;2.30;;;1.40;;
79790;SDS011;69278;52.220;5.172;2023-07-20T11:48:17;2.30;;;1.30;;
79790;SDS011;69278;52.220;5.172;2023-07-20T11:50:44;2.38;;;1.50;;
79790;SDS011;69278;52.220;5.172;2023-07-20T11:53:10;2.00;;;1.33;;
79790;SDS011;69278;52.220;5.172;2023-07-20T11:55:38;2.38;;;1.30;;
79790;SDS011;69278;52.220;5.172;2023-07-20T11:58:07;3.10;;;1.20;;
79790;SDS011;69278;52.220;5.172;2023-07-20T12:00:34;2.45;;;1.20;;
79790;SDS011;69278;52.220;5.172;2023-07-20T12:03:04;2.20;;;1.38;;
79790;SDS011;69278;52.220;5.172;2023-07-20T12:05:33;2.70;;;1.60;;
79790;SDS011;69278;52.220;5.172;2023-07-20T12:08:20;2.40;;;1.50;;
79790;SDS011;69278;52.220;5.172;2023-07-20T12:10:48;2.60;;;1.50;;
79790;SDS011;69278;52.220;5.172;2023-07-20T12:13:14;2.50;;;1.60;;
79790;SDS011;69278;52.220;5.172;2023-07-20T12:15:41;2.72;;;1.50;;
79790;SDS011;69278;52.220;5.172;2023-07-20T12:18:08;1.73;;;1.25;;
79790;SDS011;69278;52.220;5.172;2023-07-20T12:20:35;2.40;;;1.55;;
79790;SDS011;69278;52.220;5.172;2023-07-20T12:23:04;2.80;;;1.53;;
79790;SDS011;69278;52.220;5.172;2023-07-20T12:28:05;2.38;;;1.23;;
79790;SDS011;69278;52.220;5.172;2023-07-20T12:30:33;3.03;;;1.50;;
79790;SDS011;69278;52.220;5.172;2023-07-20T12:32:59;3.15;;;1.50;;
79790;SDS011;69278;52.220;5.172;2023-07-20T12:35:26;2.50;;;1.40;;
79790;SDS011;69278;52.220;5.172;2023-07-20T12:37:53;3.78;;;1.48;;
79790;SDS011;69278;52.220;5.172;2023-07-20T12:40:20;2.35;;;1.40;;
79790;SDS011;69278;52.220;5.172;2023-07-20T12:42:47;2.28;;;1.30;;
79790;SDS011;69278;52.220;5.172;2023-07-20T12:45:14;2.80;;;1.70;;
79790;SDS011;69278;52.220;5.172;2023-07-20T12:47:41;2.33;;;1.30;;
79790;SDS011;69278;52.220;5.172;2023-07-20T12:50:10;4.65;;;1.50;;
79790;SDS011;69278;52.220;5.172;2023-07-20T12:52:38;1.95;;;1.23;;
79790;SDS011;69278;52.220;5.172;2023-07-20T12:55:06;2.15;;;1.20;;
79790;SDS011;69278;52.220;5.172;2023-07-20T12:57:37;4.43;;;1.20;;
79790;SDS011;69278;52.220;5.172;2023-07-20T13:00:04;2.30;;;1.10;;
79790;SDS011;69278;52.220;5.172;2023-07-20T13:02:34;1.80;;;1.17;;
79790;SDS011;69278;52.220;5.172;2023-07-20T13:05:01;1.70;;;1.15;;
79790;SDS011;69278;52.220;5.172;2023-07-20T13:07:29;1.65;;;1.13;;
79790;SDS011;69278;52.220;5.172;2023-07-20T13:10:01;3.80;;;1.40;;
79790;SDS011;69278;52.220;5.172;2023-07-20T13:12:28;1.60;;;1.20;;
79790;SDS011;69278;52.220;5.172;2023-07-20T13:14:55;1.60;;;1.20;;
79790;SDS011;69278;52.220;5.172;2023-07-20T13:17:22;2.10;;;1.17;;
79790;SDS011;69278;52.220;5.172;2023-07-20T13:19:49;6.47;;;0.93;;
79790;SDS011;69278;52.220;5.172;2023-07-20T13:22:16;3.15;;;1.10;;
79790;SDS011;69278;52.220;5.172;2023-07-20T13:24:46;2.57;;;1.20;;
79790;SDS011;69278;52.220;5.172;2023-07-20T13:27:17;1.70;;;1.00;;
79790;SDS011;69278;52.220;5.172;2023-07-20T13:29:45;1.67;;;1.00;;
79790;SDS011;69278;52.220;5.172;2023-07-20T13:32:14;1.55;;;1.05;;
79790;SDS011;69278;52.220;5.172;2023-07-20T13:34:41;1.50;;;0.90;;
79790;SDS011;69278;52.220;5.172;2023-07-20T13:37:08;2.03;;;1.20;;
79790;SDS011;69278;52.220;5.172;2023-07-20T13:39:38;1.70;;;1.00;;
79790;SDS011;69278;52.220;5.172;2023-07-20T13:42:05;1.27;;;0.90;;
79790;SDS011;69278;52.220;5.172;2023-07-20T13:44:32;2.47;;;1.13;;
79790;SDS011;69278;52.220;5.172;2023-07-20T13:46:59;1.30;;;0.90;;
79790;SDS011;69278;52.220;5.172;2023-07-20T13:49:29;2.27;;;1.20;;
79790;SDS011;69278;52.220;5.172;2023-07-20T13:52:11;2.25;;;1.10;;
79790;SDS011;69278;52.220;5.172;2023-07-20T13:54:40;1.42;;;1.10;;
79790;SDS011;69278;52.220;5.172;2023-07-20T13:57:14;2.17;;;1.08;;
79790;SDS011;69278;52.220;5.172;2023-07-20T13:59:42;1.40;;;0.90;;
79790;SDS011;69278;52.220;5.172;2023-07-20T14:02:09;1.23;;;0.80;;
79790;SDS011;69278;52.220;5.172;2023-07-20T14:04:39;1.67;;;1.00;;
79790;SDS011;69278;52.220;5.172;2023-07-20T14:07:06;2.05;;;0.90;;
79790;SDS011;69278;52.220;5.172;2023-07-20T14:09:33;2.05;;;1.10;;
79790;SDS011;69278;52.220;5.172;2023-07-20T14:11:59;1.42;;;1.08;;
79790;SDS011;69278;52.220;5.172;2023-07-20T14:14:29;2.60;;;0.97;;
79790;SDS011;69278;52.220;5.172;2023-07-20T14:16:55;1.92;;;0.95;;
79790;SDS011;69278;52.220;5.172;2023-07-20T14:19:22;1.27;;;0.90;;
79790;SDS011;69278;52.220;5.172;2023-07-20T14:21:49;3.05;;;0.90;;
79790;SDS011;69278;52.220;5.172;2023-07-20T14:24:16;2.35;;;0.90;;
79790;SDS011;69278;52.220;5.172;2023-07-20T14:26:44;1.87;;;0.90;;
79790;SDS011;69278;52.220;5.172;2023-07-20T14:29:11;3.88;;;1.10;;
79790;SDS011;69278;52.220;5.172;2023-07-20T14:31:38;2.72;;;1.10;;
79790;SDS011;69278;52.220;5.172;2023-07-20T14:34:04;1.67;;;0.98;;
79790;SDS011;69278;52.220;5.172;2023-07-20T14:36:31;1.60;;;1.00;;
79790;SDS011;69278;52.220;5.172;2023-07-20T14:39:00;1.70;;;0.90;;
79790;SDS011;69278;52.220;5.172;2023-07-20T14:41:26;2.58;;;0.93;;
79790;SDS011;69278;52.220;5.172;2023-07-20T14:43:53;2.05;;;1.15;;
79790;SDS011;69278;52.220;5.172;2023-07-20T14:46:19;3.47;;;1.90;;
79790;SDS011;69278;52.220;5.172;2023-07-20T14:48:47;2.42;;;1.17;;
79790;SDS011;69278;52.220;5.172;2023-07-20T14:51:14;4.20;;;1.23;;
79790;SDS011;69278;52.220;5.172;2023-07-20T14:53:40;4.90;;;1.40;;
79790;SDS011;69278;52.220;5.172;2023-07-20T14:56:07;2.15;;;1.20;;
79790;SDS011;69278;52.220;5.172;2023-07-20T14:58:34;3.35;;;1.10;;
79790;SDS011;69278;52.220;5.172;2023-07-20T15:01:01;2.38;;;1.10;;
79790;SDS011;69278;52.220;5.172;2023-07-20T15:03:29;2.43;;;1.30;;
79790;SDS011;69278;52.220;5.172;2023-07-20T15:05:57;3.38;;;1.50;;
79790;SDS011;69278;52.220;5.172;2023-07-20T15:08:23;2.40;;;1.40;;